createdAt,value
2023-03-12T00:02:14.347Z,2.70
2023-03-12T00:09:41.809Z,2.60
2023-03-12T00:12:10.185Z,2.50
2023-03-12T00:14:38.341Z,2.60
2023-03-12T00:17:08.214Z,2.70
2023-03-12T00:19:36.978Z,2.70
2023-03-12T00:22:07.626Z,2.60
2023-03-12T00:24:36.394Z,2.60
2023-03-12T00:32:11.147Z,2.60
2023-03-12T00:34:53.360Z,2.60
2023-03-12T00:37:21.424Z,2.70
2023-03-12T00:39:48.637Z,2.70
2023-03-12T00:42:19.499Z,2.70
2023-03-12T00:44:49.912Z,2.70
2023-03-12T00:47:20.818Z,2.70
2023-03-12T00:49:48.632Z,2.70
2023-03-12T00:57:15.563Z,2.60
2023-03-12T00:59:42.718Z,2.60
2023-03-12T01:02:10.419Z,2.50
2023-03-12T01:04:55.728Z,2.50
2023-03-12T01:07:29.281Z,2.60
2023-03-12T01:09:58.910Z,2.40
2023-03-12T01:12:27.708Z,2.10
2023-03-12T01:20:11.009Z,2.30
2023-03-12T01:22:38.234Z,2.40
2023-03-12T01:25:10.796Z,2.50
2023-03-12T01:27:49.040Z,2.50
2023-03-12T01:30:19.018Z,2.60
2023-03-12T01:33:01.008Z,2.50
2023-03-12T01:35:35.950Z,2.50
2023-03-12T01:43:27.879Z,2.40
2023-03-12T01:46:19.556Z,2.20
2023-03-12T01:48:52.971Z,2.10
2023-03-12T01:51:32.476Z,2.20
2023-03-12T01:54:10.065Z,2.10
2023-03-12T01:56:39.334Z,2.20
2023-03-12T01:59:23.863Z,2.20
2023-03-12T02:01:51.707Z,2.00
2023-03-12T02:09:47.902Z,2.10
2023-03-12T02:12:20.360Z,2.10
2023-03-12T02:14:49.052Z,1.90
2023-03-12T02:17:16.419Z,1.70
2023-03-12T02:19:52.002Z,1.80
2023-03-12T02:22:22.629Z,1.90
2023-03-12T02:25:03.219Z,2.00
2023-03-12T02:34:15.067Z,1.80
2023-03-12T02:36:42.840Z,1.80
2023-03-12T02:39:15.235Z,1.90
2023-03-12T02:41:45.404Z,1.80
2023-03-12T02:44:18.085Z,1.80
2023-03-12T02:46:58.036Z,1.80
2023-03-12T02:49:28.578Z,1.80
2023-03-12T02:55:02.812Z,1.90
2023-03-12T02:57:30.169Z,1.80
2023-03-12T02:59:59.975Z,1.90
2023-03-12T03:02:28.742Z,1.80
2023-03-12T03:04:57.794Z,1.80
2023-03-12T03:07:26.260Z,1.80
2023-03-12T03:09:53.708Z,1.80
2023-03-12T03:12:22.497Z,1.60
2023-03-12T03:15:27.638Z,1.60
2023-03-12T03:23:48.272Z,1.60
2023-03-12T03:26:17.943Z,1.80
2023-03-12T03:28:51.881Z,1.90
2023-03-12T03:31:24.057Z,1.80
2023-03-12T03:33:51.481Z,1.80
2023-03-12T03:36:19.102Z,1.80
2023-03-12T03:39:12.786Z,1.90
2023-03-12T03:44:51.972Z,1.90
2023-03-12T03:50:18.287Z,1.60
2023-03-12T03:52:50.975Z,1.70
2023-03-12T03:55:23.388Z,1.60
2023-03-12T03:57:50.487Z,1.70
2023-03-12T04:00:28.933Z,1.80
2023-03-12T04:02:57.723Z,1.90
2023-03-12T04:08:38.229Z,2.00
2023-03-12T04:11:12.686Z,2.10
2023-03-12T04:13:52.386Z,2.10
2023-03-12T04:16:40.013Z,2.00
2023-03-12T04:19:10.867Z,1.90
2023-03-12T04:21:45.668Z,1.90
2023-03-12T04:24:23.227Z,1.90
2023-03-12T04:26:51.124Z,1.80
2023-03-12T04:32:23.462Z,1.90
2023-03-12T04:35:07.801Z,1.80
2023-03-12T04:37:44.157Z,1.80
2023-03-12T04:43:02.665Z,1.80
2023-03-12T04:46:11.642Z,1.70
2023-03-12T04:49:11.783Z,1.70
2023-03-12T04:51:39.255Z,1.60
2023-03-12T04:56:50.842Z,1.60
2023-03-12T04:59:17.813Z,1.80
2023-03-12T05:02:18.112Z,1.70
2023-03-12T05:04:45.845Z,1.60
2023-03-12T05:07:16.354Z,1.80
2023-03-12T05:09:45.776Z,1.70
2023-03-12T05:12:19.464Z,1.80
2023-03-12T05:14:51.684Z,1.80
2023-03-12T05:22:48.911Z,1.90
2023-03-12T05:25:17.156Z,1.90
2023-03-12T05:27:52.791Z,1.90
2023-03-12T05:30:26.280Z,2.00
2023-03-12T05:32:53.741Z,2.00
2023-03-12T05:35:24.836Z,2.10
2023-03-12T05:37:52.989Z,2.10
2023-03-12T05:40:28.579Z,2.10
2023-03-12T05:45:45.638Z,2.10
2023-03-12T05:48:24.735Z,2.00
2023-03-12T05:50:53.263Z,1.90
2023-03-12T05:53:33.699Z,2.00
2023-03-12T05:56:03.973Z,2.20
2023-03-12T05:58:35.358Z,2.20
2023-03-12T06:01:12.862Z,2.20
2023-03-12T06:03:40.639Z,2.20
2023-03-12T06:11:28.556Z,2.40
2023-03-12T06:16:55.274Z,2.20
2023-03-12T06:19:22.722Z,2.20
2023-03-12T06:21:52.787Z,2.30
2023-03-12T06:24:20.474Z,2.30
2023-03-12T06:26:49.248Z,2.30
2023-03-12T06:29:19.526Z,2.20
2023-03-12T06:31:51.733Z,2.30
2023-03-12T06:39:27.092Z,2.20
2023-03-12T06:42:14.609Z,2.20
2023-03-12T06:44:42.237Z,2.30
2023-03-12T06:50:12.785Z,2.20
2023-03-12T06:52:42.813Z,2.10
2023-03-12T06:55:21.162Z,2.10
2023-03-12T06:57:49.265Z,2.10
2023-03-12T07:00:27.082Z,2.00
2023-03-12T07:05:40.368Z,2.10
2023-03-12T07:08:07.747Z,2.10
2023-03-12T07:10:52.734Z,2.00
2023-03-12T07:13:21.482Z,2.00
2023-03-12T07:15:52.201Z,1.90
2023-03-12T07:18:19.512Z,1.80
2023-03-12T07:20:48.013Z,1.70
2023-03-12T07:28:26.799Z,1.40
2023-03-12T07:30:59.904Z,1.60
2023-03-12T07:33:28.205Z,1.60
2023-03-12T07:36:05.540Z,1.60
2023-03-12T07:38:37.992Z,1.60
2023-03-12T07:41:05.807Z,1.70
2023-03-12T07:43:34.217Z,1.70
2023-03-12T07:46:07.479Z,1.50
2023-03-12T07:53:49.043Z,1.40
2023-03-12T07:56:23.756Z,1.40
2023-03-12T07:58:52.690Z,1.20
2023-03-12T08:01:24.945Z,1.20
2023-03-12T08:03:56.366Z,1.20
2023-03-12T08:06:24.252Z,1.30
2023-03-12T08:09:04.492Z,1.30
2023-03-12T08:16:42.851Z,1.40
2023-03-12T08:19:17.879Z,1.50
2023-03-12T08:21:50.491Z,1.60
2023-03-12T08:24:18.698Z,1.80
2023-03-12T08:26:49.705Z,1.80
2023-03-12T08:29:30.061Z,2.00
2023-03-12T08:32:05.734Z,1.90
2023-03-12T08:35:13.192Z,2.00
2023-03-12T08:43:25.487Z,2.20
2023-03-12T08:46:25.451Z,2.40
2023-03-12T08:49:09.985Z,2.40
2023-03-12T08:51:37.857Z,2.40
2023-03-12T08:54:07.080Z,2.50
2023-03-12T08:56:43.591Z,2.60
2023-03-12T08:59:26.065Z,2.60
2023-03-12T09:07:37.860Z,2.80
2023-03-12T09:10:14.163Z,3.20
2023-03-12T09:12:44.236Z,3.50
2023-03-12T09:15:12.125Z,3.80
2023-03-12T09:17:51.301Z,3.70
2023-03-12T09:20:40.783Z,3.70
2023-03-12T09:23:33.788Z,3.80
2023-03-12T09:30:45.561Z,3.80
2023-03-12T09:33:15.924Z,4.00
2023-03-12T09:35:51.572Z,4.10
2023-03-12T09:38:24.464Z,4.20
2023-03-12T09:40:56.397Z,4.30
2023-03-12T09:43:43.350Z,4.50
2023-03-12T09:49:46.884Z,4.40
2023-03-12T09:55:19.882Z,4.50
2023-03-12T09:57:52.749Z,4.60
2023-03-12T10:00:41.830Z,4.40
2023-03-12T10:03:49.186Z,4.10
2023-03-12T10:06:40.912Z,4.20
2023-03-12T10:09:43.547Z,4.40
2023-03-12T10:12:36.556Z,4.30
2023-03-12T10:22:55.713Z,4.30
2023-03-12T10:25:50.029Z,4.30
2023-03-12T10:28:21.336Z,4.50
2023-03-12T10:30:54.579Z,4.40
2023-03-12T10:33:27.320Z,4.50
2023-03-12T10:36:00.489Z,4.60
2023-03-12T10:38:39.519Z,4.60
2023-03-12T10:45:36.295Z,4.80
2023-03-12T10:48:16.809Z,4.60
2023-03-12T10:51:31.044Z,4.70
2023-03-12T10:54:14.264Z,5.00
2023-03-12T10:56:52.235Z,4.90
2023-03-12T10:59:41.025Z,5.00
2023-03-12T11:02:32.313Z,5.20
2023-03-12T11:10:24.367Z,5.50
2023-03-12T11:13:32.927Z,5.30
2023-03-12T11:16:22.413Z,5.40
2023-03-12T11:22:07.554Z,5.70
2023-03-12T11:24:59.624Z,5.80
2023-03-12T11:28:16.597Z,5.90
2023-03-12T11:33:43.522Z,6.00
2023-03-12T11:36:34.930Z,6.20
2023-03-12T11:39:21.036Z,6.40
2023-03-12T11:42:11.521Z,6.60
2023-03-12T11:44:54.474Z,6.40
2023-03-12T11:47:49.799Z,6.50
2023-03-12T11:50:49.168Z,6.50
2023-03-12T11:58:40.085Z,6.80
2023-03-12T12:01:29.755Z,6.80
2023-03-12T12:04:36.657Z,6.90
2023-03-12T12:07:28.833Z,7.10
2023-03-12T12:10:04.049Z,7.10
2023-03-12T12:12:51.918Z,7.20
2023-03-12T12:18:48.833Z,7.60
2023-03-12T12:21:46.959Z,7.70
2023-03-12T12:24:38.205Z,7.90
2023-03-12T12:27:19.326Z,8.00
2023-03-12T12:30:13.182Z,8.10
2023-03-12T12:33:18.511Z,7.80
2023-03-12T12:39:00.740Z,7.80
2023-03-12T12:41:32.701Z,7.90
2023-03-12T12:44:02.924Z,8.30
2023-03-12T12:46:34.124Z,8.40
2023-03-12T12:49:07.911Z,8.50
2023-03-12T12:51:44.974Z,8.50
2023-03-12T12:54:30.552Z,8.60
2023-03-12T13:03:36.044Z,9.00
2023-03-12T13:06:11.324Z,9.00
2023-03-12T13:09:04.938Z,9.00
2023-03-12T13:11:49.131Z,9.10
2023-03-12T13:14:55.112Z,9.10
2023-03-12T13:17:34.474Z,9.20
2023-03-12T13:20:36.023Z,9.30
2023-03-12T13:37:15.496Z,9.40
2023-03-12T13:40:17.702Z,9.60
2023-03-12T13:43:16.966Z,9.60
2023-03-12T13:46:20.886Z,9.60
2023-03-12T13:49:11.321Z,9.60
2023-03-12T13:52:36.881Z,9.50
2023-03-12T13:55:31.691Z,9.50
2023-03-12T14:01:05.796Z,9.50
2023-03-12T14:03:42.669Z,9.30
2023-03-12T14:06:18.816Z,9.50
2023-03-12T14:09:05.948Z,9.50
2023-03-12T14:12:08.232Z,9.40
2023-03-12T14:15:01.044Z,9.50
2023-03-12T14:20:41.373Z,9.80
2023-03-12T14:23:15.800Z,9.70
2023-03-12T14:25:44.986Z,9.70
2023-03-12T14:28:17.214Z,9.70
2023-03-12T14:30:53.453Z,9.80
2023-03-12T14:33:22.513Z,9.80
2023-03-12T14:35:56.886Z,9.70
2023-03-12T14:38:30.597Z,9.70
2023-03-12T14:43:40.252Z,9.60
2023-03-12T14:46:15.266Z,9.60
2023-03-12T14:48:43.443Z,9.60
2023-03-12T14:51:24.204Z,9.90
2023-03-12T14:53:52.882Z,10.00
2023-03-12T14:56:28.699Z,9.90
2023-03-12T14:58:58.203Z,10.10
2023-03-12T15:06:36.271Z,10.10
2023-03-12T15:09:06.140Z,10.10
2023-03-12T15:11:38.531Z,10.30
2023-03-12T15:14:09.327Z,10.30
2023-03-12T15:16:43.710Z,10.20
2023-03-12T15:19:13.714Z,10.40
2023-03-12T15:21:42.542Z,10.30
2023-03-12T15:29:26.132Z,10.50
2023-03-12T15:31:58.754Z,10.50
2023-03-12T15:34:34.919Z,10.70
2023-03-12T15:37:04.654Z,10.50
2023-03-12T15:39:41.808Z,10.60
2023-03-12T15:42:19.991Z,10.70
2023-03-12T15:44:54.060Z,10.70
2023-03-12T15:51:40.022Z,10.70
2023-03-12T15:54:24.976Z,10.70
2023-03-12T15:56:52.730Z,10.50
2023-03-12T15:59:24.274Z,10.30
2023-03-12T16:01:53.231Z,10.50
2023-03-12T16:04:21.226Z,10.60
2023-03-12T16:06:52.246Z,10.40
2023-03-12T16:14:31.579Z,10.50
2023-03-12T16:16:59.404Z,10.50
2023-03-12T16:19:34.427Z,10.60
2023-03-12T16:22:02.078Z,10.60
2023-03-12T16:24:29.471Z,10.70
2023-03-12T16:26:59.642Z,10.40
2023-03-12T16:29:32.475Z,10.50
2023-03-12T16:36:30.348Z,10.80
2023-03-12T16:38:57.949Z,11.00
2023-03-12T16:41:28.092Z,11.00
2023-03-12T16:43:56.806Z,11.20
2023-03-12T16:46:32.332Z,11.20
2023-03-12T16:49:06.639Z,11.30
2023-03-12T16:51:35.181Z,11.10
2023-03-12T16:59:26.826Z,11.10
2023-03-12T17:01:54.589Z,11.30
2023-03-12T17:04:23.210Z,11.20
2023-03-12T17:06:50.624Z,11.20
2023-03-12T17:09:18.826Z,11.10
2023-03-12T17:11:52.872Z,11.20
2023-03-12T17:14:24.967Z,11.00
2023-03-12T17:19:32.445Z,11.00
2023-03-12T17:22:03.053Z,10.80
2023-03-12T17:24:31.217Z,11.00
2023-03-12T17:26:58.569Z,11.10
2023-03-12T17:29:25.846Z,10.80
2023-03-12T17:31:55.517Z,10.60
2023-03-12T17:34:27.396Z,10.80
2023-03-12T17:40:01.803Z,10.90
2023-03-12T17:42:33.017Z,10.80
2023-03-12T17:45:00.166Z,10.90
2023-03-12T17:47:29.328Z,11.00
2023-03-12T17:49:58.227Z,10.90
2023-03-12T17:52:31.501Z,11.00
2023-03-12T17:55:02.896Z,11.10
2023-03-12T17:57:30.929Z,11.10
2023-03-12T18:02:53.372Z,10.70
2023-03-12T18:05:20.604Z,10.90
2023-03-12T18:07:49.589Z,11.00
2023-03-12T18:10:20.516Z,10.80
2023-03-12T18:12:49.704Z,11.00
2023-03-12T18:15:17.125Z,11.10
2023-03-12T18:17:44.997Z,11.10
2023-03-12T18:23:05.496Z,10.80
2023-03-12T18:25:33.408Z,10.70
2023-03-12T18:28:01.079Z,10.80
2023-03-12T18:30:32.876Z,10.80
2023-03-12T18:33:01.324Z,10.70
2023-03-12T18:35:30.851Z,10.70
2023-03-12T18:37:59.663Z,11.00
2023-03-12T18:45:34.534Z,10.60
2023-03-12T18:48:21.464Z,10.60
2023-03-12T18:50:55.116Z,10.70
2023-03-12T18:53:28.614Z,10.70
2023-03-12T18:55:57.920Z,10.80
2023-03-12T18:58:30.821Z,10.80
2023-03-12T19:01:08.039Z,10.90
2023-03-12T19:06:49.548Z,10.70
2023-03-12T19:09:18.101Z,10.60
2023-03-12T19:11:49.951Z,10.50
2023-03-12T19:14:19.290Z,10.50
2023-03-12T19:16:46.762Z,10.40
2023-03-12T19:19:16.614Z,10.10
2023-03-12T19:21:47.849Z,10.00
2023-03-12T19:29:22.367Z,9.70
2023-03-12T19:31:49.948Z,9.90
2023-03-12T19:34:21.381Z,10.00
2023-03-12T19:36:51.292Z,10.20
2023-03-12T19:39:21.943Z,10.20
2023-03-12T19:41:54.131Z,10.00
2023-03-12T19:44:22.129Z,9.90
2023-03-12T19:51:48.780Z,9.90
2023-03-12T19:54:16.247Z,9.70
2023-03-12T19:56:43.589Z,10.10
2023-03-12T19:59:13.029Z,10.20
2023-03-12T20:01:42.165Z,10.20
2023-03-12T20:04:11.134Z,10.20
2023-03-12T20:06:40.041Z,10.40
2023-03-12T20:14:20.865Z,10.60
2023-03-12T20:16:49.846Z,10.60
2023-03-12T20:19:17.367Z,10.70
2023-03-12T20:21:46.465Z,10.70
2023-03-12T20:24:14.257Z,10.70
2023-03-12T20:26:42.076Z,10.80
2023-03-12T20:29:09.584Z,10.80
2023-03-12T20:36:31.401Z,10.50
2023-03-12T20:38:58.494Z,10.80
2023-03-12T20:41:30.511Z,10.80
2023-03-12T20:44:02.294Z,10.70
2023-03-12T20:46:29.520Z,10.70
2023-03-12T20:48:57.176Z,10.70
2023-03-12T20:51:24.791Z,10.70
2023-03-12T20:59:08.961Z,10.50
2023-03-12T21:01:36.765Z,10.60
2023-03-12T21:04:06.568Z,10.40
2023-03-12T21:06:33.871Z,10.40
2023-03-12T21:09:03.402Z,10.50
2023-03-12T21:11:32.439Z,10.40
2023-03-12T21:14:00.959Z,10.40
2023-03-12T21:19:32.621Z,10.40
2023-03-12T21:21:59.889Z,10.20
2023-03-12T21:24:27.170Z,10.30
2023-03-12T21:27:03.432Z,10.40
2023-03-12T21:29:30.706Z,10.30
2023-03-12T21:32:05.553Z,10.20
2023-03-12T21:34:34.278Z,10.30
2023-03-12T21:42:03.453Z,10.40
2023-03-12T21:44:38.179Z,10.40
2023-03-12T21:47:05.991Z,10.40
2023-03-12T21:49:47.060Z,10.10
2023-03-12T21:52:20.580Z,10.30
2023-03-12T21:54:47.711Z,10.20
2023-03-12T21:57:15.758Z,10.20
2023-03-12T22:02:32.613Z,10.30
2023-03-12T22:05:00.710Z,10.20
2023-03-12T22:07:30.157Z,10.10
2023-03-12T22:10:01.954Z,10.20
2023-03-12T22:12:40.039Z,10.10
2023-03-12T22:15:15.678Z,9.90
2023-03-12T22:17:44.050Z,9.70
2023-03-12T22:24:32.178Z,9.80
2023-03-12T22:27:01.134Z,9.60
2023-03-12T22:29:29.044Z,9.70
2023-03-12T22:31:56.264Z,9.80
2023-03-12T22:34:30.154Z,9.70
2023-03-12T22:37:01.580Z,9.70
2023-03-12T22:39:28.878Z,9.60
2023-03-12T22:47:04.035Z,9.70
2023-03-12T22:49:36.810Z,9.60
2023-03-12T22:52:07.269Z,9.60
2023-03-12T22:54:37.271Z,9.50
2023-03-12T22:57:15.750Z,9.60
2023-03-12T22:59:47.264Z,9.70
2023-03-12T23:02:18.797Z,9.70
2023-03-12T23:09:44.746Z,9.80
2023-03-12T23:12:13.889Z,9.70
2023-03-12T23:14:46.933Z,9.50
2023-03-12T23:17:13.876Z,9.40
2023-03-12T23:19:42.405Z,9.70
2023-03-12T23:22:09.738Z,9.80
2023-03-12T23:24:49.745Z,10.10
2023-03-12T23:27:19.335Z,10.00
2023-03-12T23:32:30.725Z,9.70
2023-03-12T23:35:00.848Z,9.50
2023-03-12T23:37:31.802Z,9.60
2023-03-12T23:40:00.668Z,9.50
2023-03-12T23:42:29.310Z,9.40
2023-03-12T23:45:07.308Z,9.40
2023-03-12T23:47:38.039Z,9.60
2023-03-12T23:50:05.998Z,9.70
2023-03-12T23:57:38.315Z,9.70
